createdAt,value
2022-12-13T00:01:48.889Z,97.00
2022-12-13T00:04:17.379Z,97.20
2022-12-13T00:06:46.020Z,97.60
2022-12-13T00:09:14.907Z,97.40
2022-12-13T00:11:42.960Z,97.00
2022-12-13T00:14:11.675Z,97.20
2022-12-13T00:16:39.785Z,97.30
2022-12-13T00:19:09.227Z,97.00
2022-12-13T00:21:37.465Z,97.30
2022-12-13T00:24:07.695Z,97.00
2022-12-13T00:26:35.741Z,96.70
2022-12-13T00:29:05.953Z,97.00
2022-12-13T00:34:23.375Z,96.50
2022-12-13T00:36:51.673Z,96.70
2022-12-13T00:39:19.688Z,96.70
2022-12-13T00:41:48.577Z,96.50
2022-12-13T00:44:16.560Z,96.30
2022-12-13T00:46:44.613Z,96.30
2022-12-13T00:49:13.720Z,96.10
2022-12-13T00:51:43.082Z,95.90
2022-12-13T00:54:11.548Z,95.30
2022-12-13T00:56:39.834Z,95.40
2022-12-13T00:59:07.921Z,95.10
2022-12-13T01:01:37.620Z,94.90
2022-12-13T01:04:07.923Z,94.90
2022-12-13T01:06:38.800Z,95.50
2022-12-13T01:09:13.100Z,95.60
2022-12-13T01:11:41.181Z,95.40
2022-12-13T01:14:09.160Z,95.00
2022-12-13T01:16:37.352Z,95.00
2022-12-13T01:19:05.451Z,95.10
2022-12-13T01:21:33.428Z,95.00
2022-12-13T01:24:05.347Z,94.80
2022-12-13T01:26:35.416Z,94.50
2022-12-13T01:29:05.343Z,94.60
2022-12-13T01:31:34.427Z,94.80
2022-12-13T01:34:10.295Z,94.80
2022-12-13T01:36:39.204Z,94.70
2022-12-13T01:39:14.712Z,94.60
2022-12-13T01:41:45.660Z,94.80
2022-12-13T01:44:50.921Z,94.80
2022-12-13T01:47:22.743Z,94.80
2022-12-13T01:49:51.332Z,94.80
2022-12-13T01:52:19.785Z,95.00
2022-12-13T01:54:52.193Z,95.40
2022-12-13T01:57:24.036Z,95.50
2022-12-13T01:59:52.730Z,95.50
2022-12-13T02:02:20.815Z,95.40
2022-12-13T02:04:56.396Z,95.10
2022-12-13T02:07:30.565Z,95.40
2022-12-13T02:10:01.061Z,95.30
2022-12-13T02:12:32.942Z,95.50
2022-12-13T02:15:03.966Z,96.20
2022-12-13T02:17:44.715Z,96.80
2022-12-13T02:20:38.614Z,96.90
2022-12-13T02:23:51.312Z,96.80
2022-12-13T02:26:39.891Z,97.20
2022-12-13T02:29:31.139Z,97.30
2022-12-13T02:32:05.079Z,97.00
2022-12-13T02:34:37.899Z,97.10
2022-12-13T02:37:18.221Z,97.10
2022-12-13T02:39:52.364Z,97.20
2022-12-13T02:42:25.766Z,97.10
2022-12-13T02:44:58.709Z,97.00
2022-12-13T02:47:29.945Z,96.80
2022-12-13T02:50:00.957Z,97.20
2022-12-13T02:52:32.263Z,97.00
2022-12-13T02:55:00.480Z,96.80
2022-12-13T02:57:35.511Z,96.80
2022-12-13T03:00:06.454Z,97.40
2022-12-13T03:02:52.116Z,97.40
2022-12-13T03:05:46.755Z,97.50
2022-12-13T03:08:23.334Z,97.40
2022-12-13T03:11:00.248Z,97.00
2022-12-13T03:13:36.986Z,97.00
2022-12-13T03:16:22.810Z,96.90
2022-12-13T03:18:53.911Z,96.80
2022-12-13T03:21:22.252Z,96.60
2022-12-13T03:23:50.280Z,96.20
2022-12-13T03:26:20.972Z,96.20
2022-12-13T03:28:49.338Z,95.80
2022-12-13T03:31:19.775Z,95.90
2022-12-13T03:33:47.851Z,95.90
2022-12-13T03:36:18.969Z,96.10
2022-12-13T03:38:47.543Z,95.70
2022-12-13T03:41:18.179Z,95.10
2022-12-13T03:43:46.857Z,94.80
2022-12-13T03:46:14.917Z,94.50
2022-12-13T03:48:43.115Z,94.60
2022-12-13T03:51:11.075Z,94.80
2022-12-13T03:53:40.512Z,94.80
2022-12-13T03:56:08.988Z,94.50
2022-12-13T03:58:38.353Z,94.50
2022-12-13T04:01:08.175Z,94.30
2022-12-13T04:03:36.378Z,94.20
2022-12-13T04:06:04.776Z,94.50
2022-12-13T04:08:32.947Z,94.40
2022-12-13T04:11:23.684Z,94.20
2022-12-13T04:13:51.095Z,94.60
2022-12-13T04:16:19.250Z,94.20
2022-12-13T04:18:47.227Z,94.30
2022-12-13T04:21:15.236Z,94.40
2022-12-13T04:23:43.282Z,94.40
2022-12-13T04:26:12.766Z,94.60
2022-12-13T04:28:40.760Z,94.50
2022-12-13T04:31:08.787Z,94.50
2022-12-13T04:33:37.405Z,94.60
2022-12-13T04:36:05.954Z,94.90
2022-12-13T04:38:33.936Z,94.50
2022-12-13T04:41:09.850Z,94.60
2022-12-13T04:43:39.178Z,94.40
2022-12-13T04:46:07.316Z,94.30
2022-12-13T04:48:35.535Z,94.50
2022-12-13T04:51:03.941Z,94.50
2022-12-13T04:53:32.176Z,94.60
2022-12-13T04:56:00.394Z,94.80
2022-12-13T04:58:29.015Z,94.90
2022-12-13T05:00:58.483Z,94.60
2022-12-13T05:03:27.941Z,94.70
2022-12-13T05:05:55.929Z,94.60
2022-12-13T05:08:23.894Z,94.60
2022-12-13T05:10:52.020Z,94.70
2022-12-13T05:13:20.062Z,94.60
2022-12-13T05:15:52.166Z,94.70
2022-12-13T05:18:24.623Z,94.40
2022-12-13T05:20:52.823Z,94.30
2022-12-13T05:23:22.689Z,94.30
2022-12-13T05:25:51.550Z,94.10
2022-12-13T05:28:28.181Z,94.10
2022-12-13T05:30:58.770Z,94.20
2022-12-13T05:33:28.460Z,94.00
2022-12-13T05:35:59.941Z,93.90
2022-12-13T05:38:30.276Z,94.00
2022-12-13T05:40:58.302Z,93.90
2022-12-13T05:43:42.684Z,93.80
2022-12-13T05:46:12.675Z,93.80
2022-12-13T05:48:42.309Z,93.60
2022-12-13T05:51:12.089Z,93.60
2022-12-13T05:53:41.551Z,93.80
2022-12-13T05:56:10.565Z,93.80
2022-12-13T05:58:39.825Z,93.90
2022-12-13T06:01:09.211Z,94.00
2022-12-13T06:03:39.885Z,94.20
2022-12-13T06:06:11.551Z,94.10
2022-12-13T06:08:40.094Z,93.80
2022-12-13T06:11:11.442Z,93.70
2022-12-13T06:13:42.867Z,94.00
2022-12-13T06:16:22.054Z,94.20
2022-12-13T06:19:00.992Z,94.50
2022-12-13T06:21:43.886Z,94.60
2022-12-13T06:24:15.387Z,94.50
2022-12-13T06:26:44.871Z,94.40
2022-12-13T06:29:13.744Z,94.20
2022-12-13T06:32:01.500Z,94.10
2022-12-13T06:34:31.707Z,94.10
2022-12-13T06:37:02.227Z,94.00
2022-12-13T06:39:32.859Z,94.00
2022-12-13T06:42:01.731Z,94.00
2022-12-13T06:44:29.815Z,94.10
2022-12-13T06:47:10.246Z,94.10
2022-12-13T06:49:42.142Z,94.10
2022-12-13T06:52:13.033Z,94.10
2022-12-13T06:54:41.496Z,94.00
2022-12-13T06:57:09.754Z,94.10
2022-12-13T06:59:37.753Z,94.00
2022-12-13T07:02:05.830Z,94.10
2022-12-13T07:04:34.217Z,94.20
2022-12-13T07:07:02.735Z,94.20
2022-12-13T07:09:32.423Z,94.40
2022-12-13T07:12:01.199Z,94.40
2022-12-13T07:14:40.749Z,94.40
2022-12-13T07:17:12.825Z,94.40
2022-12-13T07:20:01.104Z,94.20
2022-12-13T07:22:29.597Z,94.30
2022-12-13T07:25:05.971Z,94.20
2022-12-13T07:27:34.788Z,94.20
2022-12-13T07:30:03.610Z,94.20
2022-12-13T07:32:31.657Z,94.10
2022-12-13T07:34:59.629Z,94.00
2022-12-13T07:37:29.988Z,94.00
2022-12-13T07:40:03.472Z,94.40
2022-12-13T07:42:34.174Z,93.90
2022-12-13T07:45:02.120Z,93.90
2022-12-13T07:47:31.247Z,93.80
2022-12-13T07:49:59.463Z,93.70
2022-12-13T07:52:29.545Z,93.50
2022-12-13T07:54:57.524Z,93.70
2022-12-13T07:57:25.628Z,93.60
2022-12-13T07:59:55.159Z,93.60
2022-12-13T08:02:23.142Z,93.50
2022-12-13T08:04:55.050Z,93.50
2022-12-13T08:07:23.705Z,93.50
2022-12-13T08:09:53.204Z,93.10
2022-12-13T08:12:22.868Z,93.20
2022-12-13T08:14:53.070Z,93.30
2022-12-13T08:17:23.255Z,93.30
2022-12-13T08:19:51.390Z,93.10
2022-12-13T08:22:24.261Z,93.10
2022-12-13T08:24:52.483Z,93.30
2022-12-13T08:27:20.452Z,93.10
2022-12-13T08:29:48.399Z,93.40
2022-12-13T08:32:16.414Z,93.20
2022-12-13T08:34:46.571Z,93.00
2022-12-13T08:37:14.872Z,93.00
2022-12-13T08:39:42.934Z,92.90
2022-12-13T08:42:17.148Z,92.60
2022-12-13T08:44:48.265Z,92.40
2022-12-13T08:47:24.001Z,92.60
2022-12-13T08:50:02.267Z,92.70
2022-12-13T08:52:32.153Z,92.60
2022-12-13T08:55:10.008Z,92.60
2022-12-13T08:57:38.397Z,92.50
2022-12-13T09:00:07.280Z,92.40
2022-12-13T09:02:38.303Z,92.50
2022-12-13T09:05:09.620Z,92.50
2022-12-13T09:07:39.574Z,92.20
2022-12-13T09:10:27.315Z,92.30
2022-12-13T09:13:01.583Z,92.10
2022-12-13T09:15:33.746Z,92.00
2022-12-13T09:18:05.139Z,91.90
2022-12-13T09:20:40.822Z,91.80
2022-12-13T09:23:13.493Z,91.70
2022-12-13T09:25:47.223Z,91.70
2022-12-13T09:28:21.213Z,91.80
2022-12-13T09:30:50.114Z,92.20
2022-12-13T09:33:30.342Z,91.90
2022-12-13T09:36:01.292Z,91.80
2022-12-13T09:38:29.692Z,91.80
2022-12-13T09:41:01.430Z,91.70
2022-12-13T09:43:43.541Z,91.60
2022-12-13T09:46:34.504Z,91.70
2022-12-13T09:49:23.232Z,91.60
2022-12-13T09:52:11.399Z,91.60
2022-12-13T09:54:48.605Z,91.50
2022-12-13T09:57:31.333Z,91.60
2022-12-13T10:00:02.761Z,91.60
2022-12-13T10:02:32.974Z,91.50
2022-12-13T10:05:23.270Z,91.40
2022-12-13T10:07:59.128Z,91.30
2022-12-13T10:10:28.138Z,91.20
2022-12-13T10:13:02.730Z,90.90
2022-12-13T10:15:34.053Z,90.80
2022-12-13T10:18:05.016Z,90.80
2022-12-13T10:20:34.308Z,90.90
2022-12-13T10:25:55.165Z,90.50
2022-12-13T10:28:34.657Z,90.40
2022-12-13T10:31:03.253Z,90.50
2022-12-13T10:33:32.770Z,90.40
2022-12-13T10:36:10.219Z,90.50
2022-12-13T10:38:41.887Z,90.50
2022-12-13T10:41:31.944Z,90.20
2022-12-13T10:44:24.219Z,89.90
2022-12-13T10:47:05.750Z,90.30
2022-12-13T10:49:41.532Z,89.40
2022-12-13T10:52:30.821Z,88.70
2022-12-13T10:55:04.565Z,88.70
2022-12-13T10:57:53.617Z,88.50
2022-12-13T11:00:38.738Z,89.40
2022-12-13T11:03:08.187Z,89.10
2022-12-13T11:05:39.179Z,89.00
2022-12-13T11:08:16.638Z,89.70
2022-12-13T11:10:46.061Z,88.60
2022-12-13T11:13:26.330Z,88.70
2022-12-13T11:15:57.602Z,89.50
2022-12-13T11:18:28.113Z,88.70
2022-12-13T11:21:00.299Z,88.70
2022-12-13T11:23:31.714Z,88.10
2022-12-13T11:26:08.442Z,88.40
2022-12-13T11:28:55.024Z,88.70
2022-12-13T11:31:30.997Z,88.90
2022-12-13T11:34:07.317Z,88.50
2022-12-13T11:36:46.782Z,87.60
2022-12-13T11:39:20.674Z,87.40
2022-12-13T11:41:56.126Z,86.70
2022-12-13T11:44:30.649Z,86.70
2022-12-13T11:47:01.049Z,86.70
2022-12-13T11:49:40.901Z,87.10
2022-12-13T11:52:16.616Z,86.80
2022-12-13T11:54:51.480Z,87.00
2022-12-13T11:57:42.743Z,87.30
2022-12-13T12:00:34.678Z,87.60
2022-12-13T12:03:16.783Z,87.90
2022-12-13T12:05:48.899Z,88.10
2022-12-13T12:08:34.283Z,87.90
2022-12-13T12:11:16.022Z,88.70
2022-12-13T12:13:52.099Z,88.40
2022-12-13T12:16:29.781Z,87.70
2022-12-13T12:19:01.620Z,87.40
2022-12-13T12:22:12.314Z,86.70
2022-12-13T12:24:37.342Z,87.20
2022-12-13T12:27:22.790Z,86.80
2022-12-13T12:30:11.919Z,86.20
2022-12-13T12:32:48.298Z,86.50
2022-12-13T12:35:46.165Z,86.80
2022-12-13T12:38:42.073Z,86.90
2022-12-13T12:41:29.805Z,86.40
2022-12-13T12:44:05.587Z,86.30
2022-12-13T12:47:01.536Z,85.60
2022-12-13T12:49:57.472Z,84.80
2022-12-13T12:52:35.772Z,84.90
2022-12-13T12:55:12.763Z,84.80
2022-12-13T12:57:52.857Z,84.10
2022-12-13T13:00:22.792Z,84.50
2022-12-13T13:03:01.828Z,84.20
2022-12-13T13:05:37.468Z,84.20
2022-12-13T13:08:13.110Z,84.10
2022-12-13T13:10:49.775Z,84.20
2022-12-13T13:13:36.334Z,85.20
2022-12-13T13:16:33.533Z,85.80
2022-12-13T13:19:03.662Z,85.40
2022-12-13T13:21:42.416Z,85.30
2022-12-13T13:24:20.729Z,85.50
2022-12-13T13:26:50.959Z,85.50
2022-12-13T13:29:27.121Z,85.30
2022-12-13T13:32:01.461Z,85.30
2022-12-13T13:34:33.189Z,84.60
2022-12-13T13:37:01.718Z,84.90
2022-12-13T13:39:56.622Z,84.80
2022-12-13T13:42:25.756Z,85.30
2022-12-13T13:45:19.530Z,85.70
2022-12-13T13:48:14.410Z,85.30
2022-12-13T13:51:25.387Z,85.50
2022-12-13T13:54:23.076Z,85.30
2022-12-13T13:57:38.542Z,85.40
2022-12-13T14:00:18.315Z,85.50
2022-12-13T14:03:33.231Z,86.10
2022-12-13T14:06:35.220Z,86.60
2022-12-13T14:09:34.010Z,87.20
2022-12-13T14:12:41.879Z,87.60
2022-12-13T14:15:49.612Z,87.80
2022-12-13T14:19:01.528Z,87.60
2022-12-13T14:21:39.754Z,87.10
2022-12-13T14:24:26.834Z,85.90
2022-12-13T14:27:06.931Z,86.50
2022-12-13T14:29:41.296Z,86.30
2022-12-13T14:32:26.466Z,85.80
2022-12-13T14:34:56.390Z,85.60
2022-12-13T14:37:28.752Z,85.50
2022-12-13T14:39:59.089Z,85.60
2022-12-13T14:42:30.180Z,85.50
2022-12-13T14:45:14.715Z,85.40
2022-12-13T14:47:43.418Z,86.00
2022-12-13T14:50:13.798Z,86.20
2022-12-13T14:52:42.298Z,86.20
2022-12-13T14:55:25.944Z,86.50
2022-12-13T14:57:55.476Z,86.50
2022-12-13T15:00:27.590Z,86.30
2022-12-13T15:02:57.771Z,86.30
2022-12-13T15:05:29.342Z,86.60
2022-12-13T15:07:57.737Z,86.30
2022-12-13T15:10:33.269Z,86.40
2022-12-13T15:13:01.332Z,86.80
2022-12-13T15:15:33.357Z,87.10
2022-12-13T15:18:17.213Z,87.30
2022-12-13T15:20:46.195Z,87.40
2022-12-13T15:23:22.191Z,87.60
2022-12-13T15:25:58.131Z,87.70
2022-12-13T15:28:29.461Z,87.80
2022-12-13T15:30:59.198Z,87.80
2022-12-13T15:33:33.429Z,87.80
2022-12-13T15:36:09.472Z,88.20
2022-12-13T15:38:40.858Z,89.00
2022-12-13T15:41:18.838Z,87.60
2022-12-13T15:43:49.711Z,88.00
2022-12-13T15:46:27.913Z,88.20
2022-12-13T15:48:57.849Z,88.00
2022-12-13T15:51:30.409Z,87.60
2022-12-13T15:54:04.990Z,88.10
2022-12-13T15:56:36.555Z,87.40
2022-12-13T15:59:07.827Z,87.20
2022-12-13T16:01:39.328Z,87.20
2022-12-13T16:04:07.745Z,87.20
2022-12-13T16:06:36.476Z,87.30
2022-12-13T16:09:07.953Z,87.30
2022-12-13T16:11:48.915Z,87.30
2022-12-13T16:14:50.211Z,87.60
2022-12-13T16:17:25.263Z,87.80
2022-12-13T16:19:54.227Z,87.30
2022-12-13T16:22:24.006Z,87.10
2022-12-13T16:24:53.214Z,86.80
2022-12-13T16:27:22.558Z,87.00
2022-12-13T16:29:50.801Z,87.30
2022-12-13T16:32:18.855Z,86.90
2022-12-13T16:34:46.868Z,87.60
2022-12-13T16:37:26.510Z,86.70
2022-12-13T16:39:55.353Z,86.50
2022-12-13T16:42:26.369Z,86.40
2022-12-13T16:45:17.806Z,86.60
2022-12-13T16:47:48.928Z,86.50
2022-12-13T16:50:19.512Z,86.70
2022-12-13T16:52:47.894Z,87.20
2022-12-13T16:55:15.921Z,87.80
2022-12-13T16:57:45.323Z,87.80
2022-12-13T17:00:14.690Z,87.80
2022-12-13T17:02:42.758Z,88.00
2022-12-13T17:05:10.935Z,88.60
2022-12-13T17:07:38.901Z,87.30
2022-12-13T17:10:08.081Z,87.60
2022-12-13T17:12:36.149Z,87.90
2022-12-13T17:15:06.471Z,88.30
2022-12-13T17:17:34.502Z,88.80
2022-12-13T17:20:03.465Z,89.40
2022-12-13T17:22:32.111Z,90.10
2022-12-13T17:25:00.085Z,90.30
2022-12-13T17:27:28.290Z,90.40
2022-12-13T17:29:56.264Z,89.60
2022-12-13T17:32:25.722Z,89.30
2022-12-13T17:34:53.711Z,89.10
2022-12-13T17:37:21.936Z,88.90
2022-12-13T17:39:50.516Z,88.80
2022-12-13T17:42:18.612Z,88.60
2022-12-13T17:44:46.612Z,88.30
2022-12-13T17:47:14.641Z,88.50
2022-12-13T17:49:43.966Z,88.60
2022-12-13T17:52:11.932Z,88.80
2022-12-13T17:54:39.867Z,89.10
2022-12-13T17:57:10.299Z,89.00
2022-12-13T17:59:43.195Z,89.30
2022-12-13T18:02:14.250Z,90.00
2022-12-13T18:04:44.278Z,90.10
2022-12-13T18:07:12.239Z,90.10
2022-12-13T18:09:40.432Z,90.40
2022-12-13T18:12:08.912Z,90.00
2022-12-13T18:14:37.354Z,90.00
2022-12-13T18:17:06.615Z,89.80
2022-12-13T18:19:34.946Z,90.00
2022-12-13T18:22:04.240Z,89.80
2022-12-13T18:24:32.194Z,89.60
2022-12-13T18:27:00.659Z,89.60
2022-12-13T18:29:28.654Z,89.70
2022-12-13T18:31:56.626Z,90.20
2022-12-13T18:34:24.662Z,90.10
2022-12-13T18:36:53.047Z,90.30
2022-12-13T18:39:22.506Z,90.40
2022-12-13T18:41:50.525Z,90.10
2022-12-13T18:44:18.717Z,90.30
2022-12-13T18:46:47.599Z,90.40
2022-12-13T18:49:15.670Z,90.30
2022-12-13T18:51:45.818Z,90.40
2022-12-13T18:54:14.097Z,90.40
2022-12-13T18:56:43.400Z,90.40
2022-12-13T18:59:12.401Z,90.30
2022-12-13T19:01:40.469Z,90.40
2022-12-13T19:04:08.445Z,90.40
2022-12-13T19:06:36.492Z,90.20
2022-12-13T19:09:04.488Z,90.30
2022-12-13T19:11:32.500Z,90.40
2022-12-13T19:14:01.867Z,90.50
2022-12-13T19:16:29.863Z,90.50
2022-12-13T19:18:58.987Z,90.50
2022-12-13T19:21:27.391Z,90.50
2022-12-13T19:23:58.021Z,90.40
2022-12-13T19:26:26.933Z,90.50
2022-12-13T19:28:56.502Z,90.30
2022-12-13T19:31:31.040Z,90.20
2022-12-13T19:34:01.074Z,90.40
2022-12-13T19:36:29.169Z,90.30
2022-12-13T19:38:57.143Z,90.10
2022-12-13T19:41:26.187Z,90.10
2022-12-13T19:43:54.365Z,90.20
2022-12-13T19:46:23.050Z,90.50
2022-12-13T19:48:52.441Z,90.20
2022-12-13T19:51:21.502Z,90.20
2022-12-13T19:53:49.922Z,90.20
2022-12-13T19:56:19.790Z,90.10
2022-12-13T19:58:49.165Z,90.20
2022-12-13T20:01:18.109Z,90.10
2022-12-13T20:03:47.432Z,90.00
2022-12-13T20:06:20.305Z,89.60
2022-12-13T20:08:48.884Z,89.50
2022-12-13T20:11:20.321Z,89.50
2022-12-13T20:13:49.210Z,89.60
2022-12-13T20:16:18.758Z,89.60
2022-12-13T20:18:49.493Z,90.00
2022-12-13T20:21:19.091Z,90.20
2022-12-13T20:23:49.748Z,90.30
2022-12-13T20:26:20.748Z,90.40
2022-12-13T20:28:49.107Z,90.50
2022-12-13T20:31:19.305Z,90.60
2022-12-13T20:33:47.669Z,90.50
2022-12-13T20:36:27.211Z,90.40
2022-12-13T20:38:57.210Z,90.40
2022-12-13T20:41:27.080Z,90.30
2022-12-13T20:43:57.905Z,90.80
2022-12-13T20:46:27.287Z,90.60
2022-12-13T20:48:57.556Z,90.70
2022-12-13T20:51:28.881Z,90.70
2022-12-13T20:53:57.572Z,90.50
2022-12-13T20:56:28.212Z,90.30
2022-12-13T20:58:56.674Z,90.40
2022-12-13T21:01:26.875Z,90.50
2022-12-13T21:03:55.579Z,90.50
2022-12-13T21:06:23.864Z,90.60
2022-12-13T21:08:54.577Z,90.80
2022-12-13T21:11:27.283Z,90.70
2022-12-13T21:14:03.754Z,90.80
2022-12-13T21:16:38.430Z,90.80
2022-12-13T21:19:07.597Z,90.90
2022-12-13T21:21:35.973Z,91.10
2022-12-13T21:24:06.348Z,91.30
2022-12-13T21:26:35.984Z,91.20
2022-12-13T21:29:07.254Z,91.10
2022-12-13T21:31:36.097Z,90.80
2022-12-13T21:34:05.357Z,90.90
2022-12-13T21:36:35.034Z,90.90
2022-12-13T21:39:06.205Z,90.70
2022-12-13T21:41:34.220Z,90.60
2022-12-13T21:44:02.272Z,90.90
2022-12-13T21:46:55.194Z,90.70
2022-12-13T21:49:19.183Z,90.90
2022-12-13T21:51:48.478Z,91.00
2022-12-13T21:54:18.859Z,91.00
2022-12-13T21:57:04.193Z,91.10
2022-12-13T21:59:32.128Z,91.00
2022-12-13T22:02:15.620Z,90.90
2022-12-13T22:04:45.244Z,90.90
2022-12-13T22:07:15.767Z,90.90
2022-12-13T22:09:47.940Z,91.00
2022-12-13T22:12:21.242Z,91.00
2022-12-13T22:14:49.562Z,91.10
2022-12-13T22:17:18.119Z,91.20
2022-12-13T22:19:48.459Z,91.00
2022-12-13T22:22:17.459Z,91.10
2022-12-13T22:24:52.828Z,91.00
2022-12-13T22:27:23.731Z,91.10
2022-12-13T22:29:53.245Z,91.20
2022-12-13T22:32:21.355Z,91.10
2022-12-13T22:34:49.637Z,91.20
2022-12-13T22:37:17.795Z,91.30
2022-12-13T22:39:47.277Z,91.50
2022-12-13T22:42:15.477Z,91.60
2022-12-13T22:44:43.485Z,91.70
2022-12-13T22:47:11.485Z,92.00
2022-12-13T22:49:40.043Z,92.20
2022-12-13T22:52:08.281Z,92.40
2022-12-13T22:54:36.516Z,92.30
2022-12-13T22:57:05.964Z,92.40
2022-12-13T22:59:34.095Z,92.60
2022-12-13T23:02:03.780Z,92.70
2022-12-13T23:04:32.736Z,92.50
2022-12-13T23:07:00.920Z,92.70
2022-12-13T23:09:28.939Z,92.80
2022-12-13T23:12:14.236Z,92.90
2022-12-13T23:14:43.543Z,93.00
2022-12-13T23:17:11.524Z,92.80
2022-12-13T23:19:49.514Z,92.50
2022-12-13T23:22:19.150Z,92.10
2022-12-13T23:24:47.112Z,92.00
2022-12-13T23:27:15.140Z,91.90
2022-12-13T23:29:44.474Z,91.90
2022-12-13T23:32:12.608Z,91.80
2022-12-13T23:34:40.635Z,92.00
2022-12-13T23:37:08.772Z,92.50
2022-12-13T23:39:36.843Z,92.90
2022-12-13T23:42:04.978Z,93.00
2022-12-13T23:44:32.930Z,92.90
2022-12-13T23:47:02.275Z,93.30
2022-12-13T23:49:30.231Z,92.70
2022-12-13T23:51:58.308Z,92.60
2022-12-13T23:54:26.334Z,93.00
2022-12-13T23:56:54.773Z,92.70
2022-12-13T23:59:26.142Z,92.70
